sensor_id;sensor_type;location;lat;lon;timestamp;P1;durP1;ratioP1;P2;durP2;ratioP2
20014;SDS011;61787;42.022;23.078;2022-11-20T00:00:40;8.77;;;2.40;;
20014;SDS011;61787;42.022;23.078;2022-11-20T00:01:41;6.60;;;2.20;;
20014;SDS011;61787;42.022;23.078;2022-11-20T00:02:43;6.50;;;2.60;;
20014;SDS011;61787;42.022;23.078;2022-11-20T00:03:45;7.90;;;2.30;;
20014;SDS011;61787;42.022;23.078;2022-11-20T00:04:47;7.57;;;2.80;;
20014;SDS011;61787;42.022;23.078;2022-11-20T00:05:49;6.07;;;2.83;;
20014;SDS011;61787;42.022;23.078;2022-11-20T00:06:50;5.43;;;2.43;;
20014;SDS011;61787;42.022;23.078;2022-11-20T00:07:52;8.73;;;2.97;;
20014;SDS011;61787;42.022;23.078;2022-11-20T00:08:54;8.70;;;2.90;;
20014;SDS011;61787;42.022;23.078;2022-11-20T00:09:57;7.47;;;2.60;;
20014;SDS011;61787;42.022;23.078;2022-11-20T00:11:15;6.17;;;2.40;;
20014;SDS011;61787;42.022;23.078;2022-11-20T00:12:21;7.10;;;2.43;;
20014;SDS011;61787;42.022;23.078;2022-11-20T00:13:22;6.93;;;2.13;;
20014;SDS011;61787;42.022;23.078;2022-11-20T00:14:24;6.17;;;2.57;;
20014;SDS011;61787;42.022;23.078;2022-11-20T00:15:26;6.53;;;2.60;;
20014;SDS011;61787;42.022;23.078;2022-11-20T00:16:28;8.10;;;3.13;;
20014;SDS011;61787;42.022;23.078;2022-11-20T00:17:32;10.23;;;2.83;;
20014;SDS011;61787;42.022;23.078;2022-11-20T00:18:34;7.13;;;2.60;;
20014;SDS011;61787;42.022;23.078;2022-11-20T00:19:36;7.27;;;2.30;;
20014;SDS011;61787;42.022;23.078;2022-11-20T00:20:37;5.57;;;2.57;;
20014;SDS011;61787;42.022;23.078;2022-11-20T00:21:39;8.17;;;2.70;;
20014;SDS011;61787;42.022;23.078;2022-11-20T00:22:41;5.40;;;2.30;;
20014;SDS011;61787;42.022;23.078;2022-11-20T00:23:42;9.47;;;2.30;;
20014;SDS011;61787;42.022;23.078;2022-11-20T00:24:44;5.87;;;2.10;;
20014;SDS011;61787;42.022;23.078;2022-11-20T00:25:45;8.83;;;2.80;;
20014;SDS011;61787;42.022;23.078;2022-11-20T00:26:47;4.20;;;1.93;;
20014;SDS011;61787;42.022;23.078;2022-11-20T00:27:48;3.63;;;2.43;;
20014;SDS011;61787;42.022;23.078;2022-11-20T00:28:53;8.30;;;2.60;;
20014;SDS011;61787;42.022;23.078;2022-11-20T00:29:57;4.90;;;2.10;;
20014;SDS011;61787;42.022;23.078;2022-11-20T00:31:02;11.10;;;3.00;;
20014;SDS011;61787;42.022;23.078;2022-11-20T00:32:04;10.37;;;2.50;;
20014;SDS011;61787;42.022;23.078;2022-11-20T00:33:05;6.27;;;2.50;;
20014;SDS011;61787;42.022;23.078;2022-11-20T00:34:08;8.20;;;2.63;;
20014;SDS011;61787;42.022;23.078;2022-11-20T00:35:10;7.00;;;2.60;;
20014;SDS011;61787;42.022;23.078;2022-11-20T00:36:16;9.57;;;3.00;;
20014;SDS011;61787;42.022;23.078;2022-11-20T00:37:19;6.90;;;2.73;;
20014;SDS011;61787;42.022;23.078;2022-11-20T00:38:20;7.50;;;2.50;;
20014;SDS011;61787;42.022;23.078;2022-11-20T00:39:22;4.67;;;2.43;;
20014;SDS011;61787;42.022;23.078;2022-11-20T00:40:24;5.77;;;2.87;;
20014;SDS011;61787;42.022;23.078;2022-11-20T00:41:26;4.23;;;2.40;;
20014;SDS011;61787;42.022;23.078;2022-11-20T00:42:29;5.03;;;2.60;;
20014;SDS011;61787;42.022;23.078;2022-11-20T00:43:30;10.70;;;3.00;;
20014;SDS011;61787;42.022;23.078;2022-11-20T00:44:32;4.23;;;1.90;;
20014;SDS011;61787;42.022;23.078;2022-11-20T00:45:33;10.43;;;2.07;;
20014;SDS011;61787;42.022;23.078;2022-11-20T00:46:35;7.23;;;2.57;;
20014;SDS011;61787;42.022;23.078;2022-11-20T00:47:37;7.73;;;2.40;;
20014;SDS011;61787;42.022;23.078;2022-11-20T00:48:39;5.37;;;2.73;;
20014;SDS011;61787;42.022;23.078;2022-11-20T00:49:40;5.93;;;2.93;;
20014;SDS011;61787;42.022;23.078;2022-11-20T00:50:42;6.73;;;2.33;;
20014;SDS011;61787;42.022;23.078;2022-11-20T00:51:43;8.33;;;2.67;;
20014;SDS011;61787;42.022;23.078;2022-11-20T00:52:45;6.87;;;2.63;;
20014;SDS011;61787;42.022;23.078;2022-11-20T00:53:47;8.90;;;2.73;;
20014;SDS011;61787;42.022;23.078;2022-11-20T00:54:48;5.87;;;2.97;;
20014;SDS011;61787;42.022;23.078;2022-11-20T00:55:57;7.40;;;2.50;;
20014;SDS011;61787;42.022;23.078;2022-11-20T00:57:00;6.03;;;2.23;;
20014;SDS011;61787;42.022;23.078;2022-11-20T00:58:01;6.13;;;2.77;;
20014;SDS011;61787;42.022;23.078;2022-11-20T00:59:04;6.60;;;2.70;;
20014;SDS011;61787;42.022;23.078;2022-11-20T01:00:06;11.53;;;3.17;;
20014;SDS011;61787;42.022;23.078;2022-11-20T01:02:17;6.97;;;2.80;;
20014;SDS011;61787;42.022;23.078;2022-11-20T01:03:19;9.43;;;2.93;;
20014;SDS011;61787;42.022;23.078;2022-11-20T01:04:27;6.07;;;2.80;;
20014;SDS011;61787;42.022;23.078;2022-11-20T01:05:28;7.60;;;2.70;;
20014;SDS011;61787;42.022;23.078;2022-11-20T01:06:31;5.83;;;2.90;;
20014;SDS011;61787;42.022;23.078;2022-11-20T01:07:37;8.30;;;3.10;;
20014;SDS011;61787;42.022;23.078;2022-11-20T01:08:39;8.63;;;2.47;;
20014;SDS011;61787;42.022;23.078;2022-11-20T01:09:41;6.13;;;1.93;;
20014;SDS011;61787;42.022;23.078;2022-11-20T01:10:43;6.30;;;2.43;;
20014;SDS011;61787;42.022;23.078;2022-11-20T01:11:45;4.40;;;2.40;;
20014;SDS011;61787;42.022;23.078;2022-11-20T01:12:46;7.17;;;2.67;;
20014;SDS011;61787;42.022;23.078;2022-11-20T01:14:13;6.27;;;2.67;;
20014;SDS011;61787;42.022;23.078;2022-11-20T01:15:16;6.77;;;2.37;;
20014;SDS011;61787;42.022;23.078;2022-11-20T01:16:18;6.70;;;2.83;;
20014;SDS011;61787;42.022;23.078;2022-11-20T01:17:28;5.80;;;2.33;;
20014;SDS011;61787;42.022;23.078;2022-11-20T01:18:31;10.73;;;2.73;;
20014;SDS011;61787;42.022;23.078;2022-11-20T01:19:33;6.03;;;2.43;;
20014;SDS011;61787;42.022;23.078;2022-11-20T01:20:35;7.20;;;2.30;;
20014;SDS011;61787;42.022;23.078;2022-11-20T01:21:39;5.20;;;2.90;;
20014;SDS011;61787;42.022;23.078;2022-11-20T01:22:42;5.50;;;2.60;;
20014;SDS011;61787;42.022;23.078;2022-11-20T01:23:43;6.90;;;2.53;;
20014;SDS011;61787;42.022;23.078;2022-11-20T01:24:46;6.33;;;2.47;;
20014;SDS011;61787;42.022;23.078;2022-11-20T01:25:47;9.27;;;2.27;;
20014;SDS011;61787;42.022;23.078;2022-11-20T01:26:49;12.27;;;2.80;;
20014;SDS011;61787;42.022;23.078;2022-11-20T01:27:52;9.50;;;2.87;;
20014;SDS011;61787;42.022;23.078;2022-11-20T01:28:53;5.17;;;2.30;;
20014;SDS011;61787;42.022;23.078;2022-11-20T01:29:56;5.63;;;2.17;;
20014;SDS011;61787;42.022;23.078;2022-11-20T01:31:01;6.60;;;2.20;;
20014;SDS011;61787;42.022;23.078;2022-11-20T01:32:12;8.53;;;2.70;;
20014;SDS011;61787;42.022;23.078;2022-11-20T01:33:13;10.00;;;2.53;;
20014;SDS011;61787;42.022;23.078;2022-11-20T01:34:16;7.63;;;2.47;;
20014;SDS011;61787;42.022;23.078;2022-11-20T01:35:19;2.63;;;1.43;;
20014;SDS011;61787;42.022;23.078;2022-11-20T01:36:22;6.80;;;2.40;;
20014;SDS011;61787;42.022;23.078;2022-11-20T01:37:24;7.60;;;2.63;;
20014;SDS011;61787;42.022;23.078;2022-11-20T01:38:26;5.40;;;2.30;;
20014;SDS011;61787;42.022;23.078;2022-11-20T01:39:27;4.63;;;1.97;;
20014;SDS011;61787;42.022;23.078;2022-11-20T01:40:29;4.17;;;1.73;;
20014;SDS011;61787;42.022;23.078;2022-11-20T01:41:31;5.57;;;2.00;;
20014;SDS011;61787;42.022;23.078;2022-11-20T01:42:55;7.70;;;2.30;;
20014;SDS011;61787;42.022;23.078;2022-11-20T01:46:24;5.17;;;1.93;;
20014;SDS011;61787;42.022;23.078;2022-11-20T01:47:24;5.33;;;1.57;;
20014;SDS011;61787;42.022;23.078;2022-11-20T01:49:48;5.10;;;2.20;;
20014;SDS011;61787;42.022;23.078;2022-11-20T01:50:53;6.10;;;1.90;;
20014;SDS011;61787;42.022;23.078;2022-11-20T01:51:56;4.83;;;1.80;;
20014;SDS011;61787;42.022;23.078;2022-11-20T01:53:04;6.77;;;2.03;;
20014;SDS011;61787;42.022;23.078;2022-11-20T01:54:13;3.43;;;1.50;;
20014;SDS011;61787;42.022;23.078;2022-11-20T01:55:22;7.57;;;2.23;;
20014;SDS011;61787;42.022;23.078;2022-11-20T01:56:27;5.03;;;1.87;;
20014;SDS011;61787;42.022;23.078;2022-11-20T01:57:32;6.83;;;1.90;;
20014;SDS011;61787;42.022;23.078;2022-11-20T01:58:38;5.38;;;2.00;;
20014;SDS011;61787;42.022;23.078;2022-11-20T01:59:44;6.50;;;1.87;;
20014;SDS011;61787;42.022;23.078;2022-11-20T02:00:50;6.40;;;2.03;;
20014;SDS011;61787;42.022;23.078;2022-11-20T02:01:52;4.00;;;1.80;;
20014;SDS011;61787;42.022;23.078;2022-11-20T02:02:58;4.97;;;1.98;;
20014;SDS011;61787;42.022;23.078;2022-11-20T02:04:03;5.80;;;1.97;;
20014;SDS011;61787;42.022;23.078;2022-11-20T02:05:49;3.17;;;1.53;;
20014;SDS011;61787;42.022;23.078;2022-11-20T02:06:42;6.47;;;1.77;;
20014;SDS011;61787;42.022;23.078;2022-11-20T02:07:46;6.13;;;1.80;;
20014;SDS011;61787;42.022;23.078;2022-11-20T02:08:50;7.37;;;2.00;;
20014;SDS011;61787;42.022;23.078;2022-11-20T02:09:53;5.93;;;1.30;;
20014;SDS011;61787;42.022;23.078;2022-11-20T02:10:59;6.70;;;1.80;;
20014;SDS011;61787;42.022;23.078;2022-11-20T02:12:00;5.28;;;1.60;;
20014;SDS011;61787;42.022;23.078;2022-11-20T02:13:02;5.47;;;1.83;;
20014;SDS011;61787;42.022;23.078;2022-11-20T02:14:23;4.97;;;1.87;;
20014;SDS011;61787;42.022;23.078;2022-11-20T02:15:26;12.87;;;2.20;;
20014;SDS011;61787;42.022;23.078;2022-11-20T02:16:31;4.17;;;1.50;;
20014;SDS011;61787;42.022;23.078;2022-11-20T02:17:38;4.20;;;1.50;;
20014;SDS011;61787;42.022;23.078;2022-11-20T02:18:39;6.23;;;1.93;;
20014;SDS011;61787;42.022;23.078;2022-11-20T02:19:42;7.93;;;2.10;;
20014;SDS011;61787;42.022;23.078;2022-11-20T02:20:44;5.30;;;1.80;;
20014;SDS011;61787;42.022;23.078;2022-11-20T02:21:49;4.37;;;1.70;;
20014;SDS011;61787;42.022;23.078;2022-11-20T02:23:22;6.60;;;1.47;;
20014;SDS011;61787;42.022;23.078;2022-11-20T02:24:32;5.07;;;1.90;;
20014;SDS011;61787;42.022;23.078;2022-11-20T02:25:34;4.80;;;1.57;;
20014;SDS011;61787;42.022;23.078;2022-11-20T02:26:40;4.37;;;1.60;;
20014;SDS011;61787;42.022;23.078;2022-11-20T02:27:46;4.13;;;1.70;;
20014;SDS011;61787;42.022;23.078;2022-11-20T02:28:48;6.50;;;1.80;;
20014;SDS011;61787;42.022;23.078;2022-11-20T02:29:53;8.27;;;1.50;;
20014;SDS011;61787;42.022;23.078;2022-11-20T02:31:03;6.10;;;2.10;;
20014;SDS011;61787;42.022;23.078;2022-11-20T02:32:05;9.33;;;2.03;;
20014;SDS011;61787;42.022;23.078;2022-11-20T02:33:06;4.07;;;1.70;;
20014;SDS011;61787;42.022;23.078;2022-11-20T02:34:08;9.23;;;2.33;;
20014;SDS011;61787;42.022;23.078;2022-11-20T02:36:20;6.60;;;1.27;;
20014;SDS011;61787;42.022;23.078;2022-11-20T02:37:23;14.80;;;2.53;;
20014;SDS011;61787;42.022;23.078;2022-11-20T02:38:31;5.97;;;1.70;;
20014;SDS011;61787;42.022;23.078;2022-11-20T02:39:33;4.37;;;1.90;;
20014;SDS011;61787;42.022;23.078;2022-11-20T02:40:34;6.70;;;1.63;;
20014;SDS011;61787;42.022;23.078;2022-11-20T02:41:36;9.47;;;2.07;;
20014;SDS011;61787;42.022;23.078;2022-11-20T02:42:38;9.40;;;2.00;;
20014;SDS011;61787;42.022;23.078;2022-11-20T02:43:40;6.50;;;1.47;;
20014;SDS011;61787;42.022;23.078;2022-11-20T02:44:42;5.13;;;1.80;;
20014;SDS011;61787;42.022;23.078;2022-11-20T02:45:44;11.83;;;2.50;;
20014;SDS011;61787;42.022;23.078;2022-11-20T02:46:45;10.23;;;2.20;;
20014;SDS011;61787;42.022;23.078;2022-11-20T02:47:47;3.63;;;1.40;;
20014;SDS011;61787;42.022;23.078;2022-11-20T02:48:49;6.70;;;2.03;;
20014;SDS011;61787;42.022;23.078;2022-11-20T02:49:50;3.93;;;2.00;;
20014;SDS011;61787;42.022;23.078;2022-11-20T02:50:52;6.97;;;1.57;;
20014;SDS011;61787;42.022;23.078;2022-11-20T02:51:53;7.53;;;2.13;;
20014;SDS011;61787;42.022;23.078;2022-11-20T02:52:55;10.50;;;2.23;;
20014;SDS011;61787;42.022;23.078;2022-11-20T02:53:57;7.93;;;1.87;;
20014;SDS011;61787;42.022;23.078;2022-11-20T02:54:58;6.80;;;1.33;;
20014;SDS011;61787;42.022;23.078;2022-11-20T02:56:00;8.00;;;1.47;;
20014;SDS011;61787;42.022;23.078;2022-11-20T02:57:01;9.47;;;1.80;;
20014;SDS011;61787;42.022;23.078;2022-11-20T02:58:03;10.43;;;1.80;;
20014;SDS011;61787;42.022;23.078;2022-11-20T02:59:05;5.20;;;1.50;;
20014;SDS011;61787;42.022;23.078;2022-11-20T03:00:07;4.90;;;1.67;;
20014;SDS011;61787;42.022;23.078;2022-11-20T03:01:09;7.07;;;1.90;;
20014;SDS011;61787;42.022;23.078;2022-11-20T03:02:11;7.00;;;1.97;;
20014;SDS011;61787;42.022;23.078;2022-11-20T03:03:13;6.07;;;1.80;;
20014;SDS011;61787;42.022;23.078;2022-11-20T03:04:14;5.43;;;1.77;;
20014;SDS011;61787;42.022;23.078;2022-11-20T03:05:16;17.70;;;2.53;;
20014;SDS011;61787;42.022;23.078;2022-11-20T03:06:17;23.57;;;2.30;;
20014;SDS011;61787;42.022;23.078;2022-11-20T03:07:19;4.17;;;1.90;;
20014;SDS011;61787;42.022;23.078;2022-11-20T03:08:21;11.10;;;2.33;;
20014;SDS011;61787;42.022;23.078;2022-11-20T03:09:22;6.53;;;1.60;;
20014;SDS011;61787;42.022;23.078;2022-11-20T03:10:24;5.93;;;1.38;;
20014;SDS011;61787;42.022;23.078;2022-11-20T03:11:26;12.87;;;2.27;;
20014;SDS011;61787;42.022;23.078;2022-11-20T03:12:28;6.03;;;1.60;;
20014;SDS011;61787;42.022;23.078;2022-11-20T03:13:29;6.07;;;1.60;;
20014;SDS011;61787;42.022;23.078;2022-11-20T03:14:31;3.17;;;1.70;;
20014;SDS011;61787;42.022;23.078;2022-11-20T03:15:32;7.80;;;1.60;;
20014;SDS011;61787;42.022;23.078;2022-11-20T03:16:34;7.60;;;2.00;;
20014;SDS011;61787;42.022;23.078;2022-11-20T03:17:35;4.67;;;1.60;;
20014;SDS011;61787;42.022;23.078;2022-11-20T03:18:37;7.00;;;2.10;;
20014;SDS011;61787;42.022;23.078;2022-11-20T03:19:40;7.53;;;2.07;;
20014;SDS011;61787;42.022;23.078;2022-11-20T03:20:41;5.87;;;2.57;;
20014;SDS011;61787;42.022;23.078;2022-11-20T03:21:43;5.63;;;1.70;;
20014;SDS011;61787;42.022;23.078;2022-11-20T03:22:44;4.00;;;1.60;;
20014;SDS011;61787;42.022;23.078;2022-11-20T03:23:46;6.30;;;1.70;;
20014;SDS011;61787;42.022;23.078;2022-11-20T03:24:48;4.13;;;1.47;;
20014;SDS011;61787;42.022;23.078;2022-11-20T03:25:49;6.70;;;1.50;;
20014;SDS011;61787;42.022;23.078;2022-11-20T03:26:51;3.97;;;1.63;;
20014;SDS011;61787;42.022;23.078;2022-11-20T03:27:53;4.40;;;1.63;;
20014;SDS011;61787;42.022;23.078;2022-11-20T03:28:56;6.53;;;1.83;;
20014;SDS011;61787;42.022;23.078;2022-11-20T03:29:59;6.77;;;1.80;;
20014;SDS011;61787;42.022;23.078;2022-11-20T03:31:06;5.87;;;2.03;;
20014;SDS011;61787;42.022;23.078;2022-11-20T03:32:09;4.93;;;1.73;;
20014;SDS011;61787;42.022;23.078;2022-11-20T03:33:11;4.37;;;1.93;;
20014;SDS011;61787;42.022;23.078;2022-11-20T03:34:12;5.43;;;1.63;;
20014;SDS011;61787;42.022;23.078;2022-11-20T03:35:14;4.67;;;1.60;;
20014;SDS011;61787;42.022;23.078;2022-11-20T03:36:16;7.07;;;1.77;;
20014;SDS011;61787;42.022;23.078;2022-11-20T03:37:20;5.10;;;1.47;;
20014;SDS011;61787;42.022;23.078;2022-11-20T03:38:21;3.80;;;1.87;;
20014;SDS011;61787;42.022;23.078;2022-11-20T03:39:23;4.57;;;2.07;;
20014;SDS011;61787;42.022;23.078;2022-11-20T03:40:24;2.40;;;1.60;;
20014;SDS011;61787;42.022;23.078;2022-11-20T03:41:27;6.13;;;1.87;;
20014;SDS011;61787;42.022;23.078;2022-11-20T03:42:30;6.77;;;1.77;;
20014;SDS011;61787;42.022;23.078;2022-11-20T03:43:51;4.70;;;1.30;;
20014;SDS011;61787;42.022;23.078;2022-11-20T03:44:54;3.37;;;1.73;;
20014;SDS011;61787;42.022;23.078;2022-11-20T03:45:56;5.83;;;2.17;;
20014;SDS011;61787;42.022;23.078;2022-11-20T03:46:58;5.43;;;1.70;;
20014;SDS011;61787;42.022;23.078;2022-11-20T03:48:00;6.67;;;1.70;;
20014;SDS011;61787;42.022;23.078;2022-11-20T03:49:01;4.33;;;2.03;;
20014;SDS011;61787;42.022;23.078;2022-11-20T03:50:04;4.50;;;1.80;;
20014;SDS011;61787;42.022;23.078;2022-11-20T03:51:06;6.07;;;1.80;;
20014;SDS011;61787;42.022;23.078;2022-11-20T03:52:09;5.40;;;1.70;;
20014;SDS011;61787;42.022;23.078;2022-11-20T03:53:11;4.40;;;1.50;;
20014;SDS011;61787;42.022;23.078;2022-11-20T03:54:12;4.00;;;1.77;;
20014;SDS011;61787;42.022;23.078;2022-11-20T03:55:14;6.13;;;1.90;;
20014;SDS011;61787;42.022;23.078;2022-11-20T03:56:16;5.33;;;2.30;;
20014;SDS011;61787;42.022;23.078;2022-11-20T03:57:19;8.53;;;2.07;;
20014;SDS011;61787;42.022;23.078;2022-11-20T03:58:20;6.63;;;2.03;;
20014;SDS011;61787;42.022;23.078;2022-11-20T03:59:22;5.60;;;1.93;;
20014;SDS011;61787;42.022;23.078;2022-11-20T04:00:24;7.00;;;1.93;;
20014;SDS011;61787;42.022;23.078;2022-11-20T04:01:26;4.90;;;1.80;;
20014;SDS011;61787;42.022;23.078;2022-11-20T04:02:30;4.83;;;1.67;;
20014;SDS011;61787;42.022;23.078;2022-11-20T04:03:32;4.57;;;1.80;;
20014;SDS011;61787;42.022;23.078;2022-11-20T04:04:33;5.93;;;1.83;;
20014;SDS011;61787;42.022;23.078;2022-11-20T04:05:35;4.33;;;1.60;;
20014;SDS011;61787;42.022;23.078;2022-11-20T04:06:37;4.13;;;1.93;;
20014;SDS011;61787;42.022;23.078;2022-11-20T04:07:39;7.47;;;1.80;;
20014;SDS011;61787;42.022;23.078;2022-11-20T04:08:40;3.33;;;1.47;;
20014;SDS011;61787;42.022;23.078;2022-11-20T04:09:42;7.70;;;2.00;;
20014;SDS011;61787;42.022;23.078;2022-11-20T04:10:44;4.37;;;1.70;;
20014;SDS011;61787;42.022;23.078;2022-11-20T04:11:45;5.03;;;1.70;;
20014;SDS011;61787;42.022;23.078;2022-11-20T04:12:47;6.40;;;1.63;;
20014;SDS011;61787;42.022;23.078;2022-11-20T04:13:53;7.43;;;1.80;;
20014;SDS011;61787;42.022;23.078;2022-11-20T04:14:56;5.53;;;1.87;;
20014;SDS011;61787;42.022;23.078;2022-11-20T04:15:58;5.63;;;1.90;;
20014;SDS011;61787;42.022;23.078;2022-11-20T04:16:59;6.37;;;2.00;;
20014;SDS011;61787;42.022;23.078;2022-11-20T04:18:01;4.57;;;1.50;;
20014;SDS011;61787;42.022;23.078;2022-11-20T04:19:03;4.80;;;2.10;;
20014;SDS011;61787;42.022;23.078;2022-11-20T04:20:07;3.83;;;1.70;;
20014;SDS011;61787;42.022;23.078;2022-11-20T04:21:09;6.27;;;1.80;;
20014;SDS011;61787;42.022;23.078;2022-11-20T04:22:12;6.20;;;2.10;;
20014;SDS011;61787;42.022;23.078;2022-11-20T04:23:13;4.90;;;1.30;;
20014;SDS011;61787;42.022;23.078;2022-11-20T04:24:15;3.17;;;1.40;;
20014;SDS011;61787;42.022;23.078;2022-11-20T04:25:16;5.77;;;1.80;;
20014;SDS011;61787;42.022;23.078;2022-11-20T04:26:18;4.73;;;1.80;;
20014;SDS011;61787;42.022;23.078;2022-11-20T04:27:21;11.77;;;1.97;;
20014;SDS011;61787;42.022;23.078;2022-11-20T04:28:22;4.93;;;1.90;;
20014;SDS011;61787;42.022;23.078;2022-11-20T04:29:24;4.03;;;1.37;;
20014;SDS011;61787;42.022;23.078;2022-11-20T04:30:25;5.40;;;1.80;;
20014;SDS011;61787;42.022;23.078;2022-11-20T04:31:28;5.93;;;1.57;;
20014;SDS011;61787;42.022;23.078;2022-11-20T04:32:32;7.37;;;2.03;;
20014;SDS011;61787;42.022;23.078;2022-11-20T04:33:35;6.00;;;1.60;;
20014;SDS011;61787;42.022;23.078;2022-11-20T04:34:37;5.17;;;1.70;;
20014;SDS011;61787;42.022;23.078;2022-11-20T04:35:39;5.53;;;1.60;;
20014;SDS011;61787;42.022;23.078;2022-11-20T04:36:40;5.97;;;1.87;;
20014;SDS011;61787;42.022;23.078;2022-11-20T04:37:42;5.67;;;1.83;;
20014;SDS011;61787;42.022;23.078;2022-11-20T04:38:43;4.80;;;1.90;;
20014;SDS011;61787;42.022;23.078;2022-11-20T04:39:46;3.17;;;1.37;;
20014;SDS011;61787;42.022;23.078;2022-11-20T04:40:47;4.20;;;1.90;;
20014;SDS011;61787;42.022;23.078;2022-11-20T04:41:49;5.53;;;1.50;;
20014;SDS011;61787;42.022;23.078;2022-11-20T04:43:10;4.70;;;1.80;;
20014;SDS011;61787;42.022;23.078;2022-11-20T04:44:12;7.13;;;1.87;;
20014;SDS011;61787;42.022;23.078;2022-11-20T04:45:13;4.17;;;1.40;;
20014;SDS011;61787;42.022;23.078;2022-11-20T04:46:15;6.23;;;1.63;;
20014;SDS011;61787;42.022;23.078;2022-11-20T04:47:18;4.30;;;1.50;;
20014;SDS011;61787;42.022;23.078;2022-11-20T04:48:20;7.73;;;1.90;;
20014;SDS011;61787;42.022;23.078;2022-11-20T04:49:22;5.30;;;1.43;;
20014;SDS011;61787;42.022;23.078;2022-11-20T04:50:24;6.07;;;1.60;;
20014;SDS011;61787;42.022;23.078;2022-11-20T04:51:26;4.30;;;2.00;;
20014;SDS011;61787;42.022;23.078;2022-11-20T04:52:28;3.83;;;1.60;;
20014;SDS011;61787;42.022;23.078;2022-11-20T04:53:30;2.77;;;1.53;;
20014;SDS011;61787;42.022;23.078;2022-11-20T04:54:31;4.97;;;1.47;;
20014;SDS011;61787;42.022;23.078;2022-11-20T04:55:33;3.57;;;1.73;;
20014;SDS011;61787;42.022;23.078;2022-11-20T04:56:35;7.23;;;1.83;;
20014;SDS011;61787;42.022;23.078;2022-11-20T04:57:36;7.47;;;1.93;;
20014;SDS011;61787;42.022;23.078;2022-11-20T04:58:38;7.23;;;1.73;;
20014;SDS011;61787;42.022;23.078;2022-11-20T04:59:40;6.03;;;1.70;;
20014;SDS011;61787;42.022;23.078;2022-11-20T05:00:42;5.17;;;1.80;;
20014;SDS011;61787;42.022;23.078;2022-11-20T05:01:43;3.73;;;1.67;;
20014;SDS011;61787;42.022;23.078;2022-11-20T05:02:45;5.80;;;1.60;;
20014;SDS011;61787;42.022;23.078;2022-11-20T05:03:46;5.53;;;1.80;;
20014;SDS011;61787;42.022;23.078;2022-11-20T05:04:48;4.53;;;1.70;;
20014;SDS011;61787;42.022;23.078;2022-11-20T05:05:50;6.07;;;1.57;;
20014;SDS011;61787;42.022;23.078;2022-11-20T05:06:51;4.47;;;1.90;;
20014;SDS011;61787;42.022;23.078;2022-11-20T05:07:55;3.63;;;1.60;;
20014;SDS011;61787;42.022;23.078;2022-11-20T05:08:57;5.60;;;1.90;;
20014;SDS011;61787;42.022;23.078;2022-11-20T05:09:59;4.93;;;1.50;;
20014;SDS011;61787;42.022;23.078;2022-11-20T05:11:08;3.93;;;1.77;;
20014;SDS011;61787;42.022;23.078;2022-11-20T05:12:11;5.67;;;1.87;;
20014;SDS011;61787;42.022;23.078;2022-11-20T05:13:13;5.23;;;1.93;;
20014;SDS011;61787;42.022;23.078;2022-11-20T05:14:15;4.67;;;1.80;;
20014;SDS011;61787;42.022;23.078;2022-11-20T05:15:16;5.27;;;1.80;;
20014;SDS011;61787;42.022;23.078;2022-11-20T05:16:19;5.70;;;2.20;;
20014;SDS011;61787;42.022;23.078;2022-11-20T05:17:25;9.60;;;2.00;;
20014;SDS011;61787;42.022;23.078;2022-11-20T05:18:26;7.27;;;2.00;;
20014;SDS011;61787;42.022;23.078;2022-11-20T05:19:28;6.20;;;1.77;;
20014;SDS011;61787;42.022;23.078;2022-11-20T05:20:29;8.20;;;2.60;;
20014;SDS011;61787;42.022;23.078;2022-11-20T05:21:31;6.20;;;1.77;;
20014;SDS011;61787;42.022;23.078;2022-11-20T05:22:33;4.43;;;1.60;;
20014;SDS011;61787;42.022;23.078;2022-11-20T05:23:35;6.97;;;1.70;;
20014;SDS011;61787;42.022;23.078;2022-11-20T05:24:37;9.37;;;2.00;;
20014;SDS011;61787;42.022;23.078;2022-11-20T05:25:38;7.17;;;1.90;;
20014;SDS011;61787;42.022;23.078;2022-11-20T05:26:40;5.77;;;1.90;;
20014;SDS011;61787;42.022;23.078;2022-11-20T05:27:42;4.33;;;1.80;;
20014;SDS011;61787;42.022;23.078;2022-11-20T05:28:44;7.23;;;1.77;;
20014;SDS011;61787;42.022;23.078;2022-11-20T05:29:45;5.30;;;1.80;;
20014;SDS011;61787;42.022;23.078;2022-11-20T05:30:48;5.37;;;1.43;;
20014;SDS011;61787;42.022;23.078;2022-11-20T05:31:49;4.93;;;1.60;;
20014;SDS011;61787;42.022;23.078;2022-11-20T05:32:51;6.10;;;1.47;;
20014;SDS011;61787;42.022;23.078;2022-11-20T05:33:53;9.37;;;1.83;;
20014;SDS011;61787;42.022;23.078;2022-11-20T05:34:54;6.30;;;2.03;;
20014;SDS011;61787;42.022;23.078;2022-11-20T05:35:59;6.30;;;1.67;;
20014;SDS011;61787;42.022;23.078;2022-11-20T05:37:01;6.17;;;1.93;;
20014;SDS011;61787;42.022;23.078;2022-11-20T05:38:03;3.37;;;1.63;;
20014;SDS011;61787;42.022;23.078;2022-11-20T05:39:05;7.60;;;1.83;;
20014;SDS011;61787;42.022;23.078;2022-11-20T05:40:06;5.70;;;1.73;;
20014;SDS011;61787;42.022;23.078;2022-11-20T05:42:19;5.07;;;1.77;;
20014;SDS011;61787;42.022;23.078;2022-11-20T05:43:37;4.17;;;1.50;;
20014;SDS011;61787;42.022;23.078;2022-11-20T05:44:40;6.10;;;2.10;;
20014;SDS011;61787;42.022;23.078;2022-11-20T05:45:41;5.70;;;1.63;;
20014;SDS011;61787;42.022;23.078;2022-11-20T05:46:43;5.72;;;1.90;;
20014;SDS011;61787;42.022;23.078;2022-11-20T05:47:45;7.97;;;1.97;;
20014;SDS011;61787;42.022;23.078;2022-11-20T05:48:46;9.00;;;1.80;;
20014;SDS011;61787;42.022;23.078;2022-11-20T05:49:48;7.50;;;1.80;;
20014;SDS011;61787;42.022;23.078;2022-11-20T05:50:50;6.43;;;1.87;;
20014;SDS011;61787;42.022;23.078;2022-11-20T05:51:52;4.23;;;1.67;;
20014;SDS011;61787;42.022;23.078;2022-11-20T05:52:53;5.00;;;1.70;;
20014;SDS011;61787;42.022;23.078;2022-11-20T05:53:58;7.90;;;2.13;;
20014;SDS011;61787;42.022;23.078;2022-11-20T05:55:00;5.30;;;1.87;;
20014;SDS011;61787;42.022;23.078;2022-11-20T05:56:06;5.63;;;2.00;;
20014;SDS011;61787;42.022;23.078;2022-11-20T05:57:12;3.70;;;1.53;;
20014;SDS011;61787;42.022;23.078;2022-11-20T05:58:13;6.43;;;2.03;;
20014;SDS011;61787;42.022;23.078;2022-11-20T05:59:15;5.67;;;2.13;;
20014;SDS011;61787;42.022;23.078;2022-11-20T06:00:16;5.93;;;1.90;;
20014;SDS011;61787;42.022;23.078;2022-11-20T06:02:21;3.17;;;1.63;;
20014;SDS011;61787;42.022;23.078;2022-11-20T06:03:23;10.67;;;2.20;;
20014;SDS011;61787;42.022;23.078;2022-11-20T06:04:24;7.23;;;2.40;;
20014;SDS011;61787;42.022;23.078;2022-11-20T06:05:26;7.93;;;2.00;;
20014;SDS011;61787;42.022;23.078;2022-11-20T06:06:28;5.97;;;1.90;;
20014;SDS011;61787;42.022;23.078;2022-11-20T06:07:30;5.13;;;2.10;;
20014;SDS011;61787;42.022;23.078;2022-11-20T06:08:32;6.30;;;2.17;;
20014;SDS011;61787;42.022;23.078;2022-11-20T06:09:33;7.33;;;2.10;;
20014;SDS011;61787;42.022;23.078;2022-11-20T06:10:35;7.10;;;2.47;;
20014;SDS011;61787;42.022;23.078;2022-11-20T06:11:37;9.33;;;2.57;;
20014;SDS011;61787;42.022;23.078;2022-11-20T06:12:39;8.70;;;2.83;;
20014;SDS011;61787;42.022;23.078;2022-11-20T06:13:41;9.80;;;2.53;;
20014;SDS011;61787;42.022;23.078;2022-11-20T06:14:43;6.27;;;2.70;;
20014;SDS011;61787;42.022;23.078;2022-11-20T06:15:51;8.07;;;2.10;;
20014;SDS011;61787;42.022;23.078;2022-11-20T06:16:54;5.87;;;1.77;;
20014;SDS011;61787;42.022;23.078;2022-11-20T06:17:57;7.50;;;2.20;;
20014;SDS011;61787;42.022;23.078;2022-11-20T06:19:00;9.57;;;2.37;;
20014;SDS011;61787;42.022;23.078;2022-11-20T06:20:01;5.90;;;1.87;;
20014;SDS011;61787;42.022;23.078;2022-11-20T06:21:04;5.23;;;1.93;;
20014;SDS011;61787;42.022;23.078;2022-11-20T06:22:08;5.37;;;2.00;;